Time;durP1;ratioP1;P1;durP2;ratioP2;P2;SDS_P1;SDS_P2;PMS_P1;PMS_P2;Temp;Humidity;BMP_temperature;BMP_pressure;BME280_temperature;BME280_humidity;BME280_pressure;Samples;Min_cycle;Max_cycle;Signal;HPM_P1;HPM_P2
2023/07/31 00:01:57;;;;;;;21.17;20.37;;;22.00;99.90;;;;;;5070366;28;20482;-65
2023/07/31 00:04:24;;;;;;;21.83;20.90;;;22.00;99.90;;;;;;5070235;28;20443;-65
2023/07/31 00:06:52;;;;;;;20.77;19.80;;;22.00;99.90;;;;;;5070451;28;20548;-65
2023/07/31 00:09:19;;;;;;;20.63;19.83;;;22.00;99.90;;;;;;5070231;28;20525;-65
2023/07/31 00:11:46;;;;;;;23.13;21.83;;;22.00;99.90;;;;;;5069360;28;20479;-65
2023/07/31 00:14:13;;;;;;;22.53;21.63;;;22.00;99.90;;;;;;5070442;28;20494;-66
2023/07/31 00:16:39;;;;;;;21.30;20.07;;;21.90;99.90;;;;;;5065846;28;20482;-66
2023/07/31 00:19:06;;;;;;;20.73;19.80;;;21.90;99.90;;;;;;5073835;28;20498;-65
2023/07/31 00:21:33;;;;;;;21.17;20.17;;;21.90;99.90;;;;;;5073765;28;21396;-65
2023/07/31 00:24:01;;;;;;;20.30;19.37;;;21.90;99.90;;;;;;5070825;28;20490;-65
2023/07/31 00:26:28;;;;;;;21.90;20.83;;;21.90;99.90;;;;;;5073652;28;20510;-66
2023/07/31 00:28:55;;;;;;;23.00;21.90;;;21.90;99.90;;;;;;5073472;28;20491;-65
2023/07/31 00:31:22;;;;;;;21.27;20.37;;;22.00;99.90;;;;;;5064839;28;20483;-65
2023/07/31 00:33:49;;;;;;;23.23;21.80;;;21.90;99.90;;;;;;5073562;28;20455;-66
2023/07/31 00:36:17;;;;;;;22.20;21.00;;;21.90;99.90;;;;;;5073416;28;20479;-66
2023/07/31 00:38:44;;;;;;;21.50;20.33;;;21.90;99.90;;;;;;5073391;28;20971;-65
2023/07/31 00:41:13;;;;;;;21.17;19.97;;;21.90;99.90;;;;;;5081561;28;20478;-66
2023/07/31 00:43:39;;;;;;;21.87;20.87;;;21.90;99.90;;;;;;5073392;28;20475;-65
2023/07/31 00:46:07;;;;;;;22.10;21.10;;;21.90;99.90;;;;;;5073163;28;20475;-66
2023/07/31 00:48:35;;;;;;;22.60;21.70;;;21.90;99.90;;;;;;5073172;28;20463;-65
2023/07/31 00:51:02;;;;;;;21.47;20.43;;;21.90;99.90;;;;;;5073410;28;20927;-65
2023/07/31 00:53:29;;;;;;;22.37;21.57;;;21.90;99.90;;;;;;5073080;28;20478;-68
2023/07/31 00:55:57;;;;;;;21.40;20.50;;;21.80;99.90;;;;;;5073203;28;20439;-65
2023/07/31 00:58:25;;;;;;;21.53;20.57;;;21.80;99.90;;;;;;5073124;28;20972;-66
2023/07/31 01:00:52;;;;;;;21.60;20.50;;;21.80;99.90;;;;;;5073049;28;20482;-65
2023/07/31 01:03:19;;;;;;;20.33;19.23;;;21.80;99.90;;;;;;5072887;28;20482;-65
2023/07/31 01:06:05;;;;;;;21.03;20.23;;;21.80;99.90;;;;;;5073402;28;20831;-65
2023/07/31 01:08:41;;;;;;;22.77;21.00;;;21.80;99.90;;;;;;5063442;28;20917;-65
2023/07/31 01:11:16;;;;;;;21.13;20.20;;;21.80;99.90;;;;;;5072953;28;20496;-66
2023/07/31 01:13:46;;;;;;;20.67;19.77;;;21.70;99.90;;;;;;5063529;28;20448;-65
2023/07/31 01:16:13;;;;;;;21.53;19.63;;;21.70;99.90;;;;;;5070389;28;20543;-66
2023/07/31 01:18:40;;;;;;;22.00;20.80;;;21.80;99.90;;;;;;5072557;28;20501;-65
2023/07/31 01:21:22;;;;;;;22.10;21.03;;;21.80;99.90;;;;;;5072715;28;20483;-65
2023/07/31 01:24:10;;;;;;;22.97;21.70;;;21.70;99.90;;;;;;5057949;28;20490;-65
2023/07/31 01:26:40;;;;;;;21.73;20.63;;;21.70;99.90;;;;;;5072449;28;20528;-65
2023/07/31 01:29:12;;;;;;;22.10;20.90;;;21.70;99.90;;;;;;5072407;28;20498;-65
2023/07/31 01:31:42;;;;;;;22.77;21.87;;;21.70;99.90;;;;;;5072552;28;20493;-66
2023/07/31 01:34:10;;;;;;;23.87;21.90;;;21.70;99.90;;;;;;5072289;28;20482;-66
2023/07/31 01:36:38;;;;;;;23.10;22.13;;;21.70;99.90;;;;;;5069827;28;20475;-66
2023/07/31 01:39:04;;;;;;;21.83;20.93;;;21.70;99.90;;;;;;5072275;28;20495;-65
2023/07/31 01:41:31;;;;;;;22.90;21.63;;;21.70;99.90;;;;;;5072181;28;20471;-65
2023/07/31 01:43:59;;;;;;;22.70;21.17;;;21.70;99.90;;;;;;5072087;28;20971;-65
2023/07/31 01:46:26;;;;;;;21.73;20.83;;;21.70;99.90;;;;;;5072097;28;20475;-65
2023/07/31 01:48:53;;;;;;;22.13;20.87;;;21.70;99.90;;;;;;5078252;28;20550;-66
2023/07/31 01:51:20;;;;;;;22.87;21.30;;;21.60;99.90;;;;;;5066735;28;20908;-66
2023/07/31 01:53:47;;;;;;;22.20;21.30;;;21.70;99.90;;;;;;5071945;28;20868;-65
2023/07/31 01:56:14;;;;;;;22.40;21.20;;;21.60;99.90;;;;;;5072086;28;20476;-65
2023/07/31 01:58:41;;;;;;;21.00;20.10;;;21.60;99.90;;;;;;5071885;28;20548;-64
2023/07/31 02:01:09;;;;;;;21.87;20.97;;;21.60;99.90;;;;;;5068360;28;20475;-65
2023/07/31 02:03:36;;;;;;;23.27;21.97;;;21.60;99.90;;;;;;5071643;28;20447;-66
2023/07/31 02:06:03;;;;;;;21.60;20.70;;;21.60;99.90;;;;;;5071840;28;20479;-65
2023/07/31 02:08:30;;;;;;;23.00;22.10;;;21.60;99.90;;;;;;5071555;28;20478;-65
2023/07/31 02:10:57;;;;;;;23.23;22.17;;;21.60;99.90;;;;;;5068147;28;20491;-66
2023/07/31 02:13:24;;;;;;;23.07;21.97;;;21.60;99.90;;;;;;5062935;28;20486;-65
2023/07/31 02:15:51;;;;;;;25.27;23.80;;;21.60;99.90;;;;;;5071664;28;20532;-65
2023/07/31 02:18:19;;;;;;;21.80;20.80;;;21.60;99.90;;;;;;5071389;28;20878;-66
2023/07/31 02:20:50;;;;;;;23.20;21.90;;;21.60;99.90;;;;;;5071556;28;20471;-66
2023/07/31 02:23:17;;;;;;;23.23;22.37;;;21.60;99.90;;;;;;5064368;28;20527;-66
2023/07/31 02:25:44;;;;;;;23.40;22.43;;;21.60;99.90;;;;;;5071424;28;20467;-66
2023/07/31 02:28:11;;;;;;;23.97;22.20;;;21.60;99.90;;;;;;5071183;28;20511;-66
2023/07/31 02:30:38;;;;;;;23.53;22.07;;;21.60;99.90;;;;;;5071393;28;20475;-66
2023/07/31 02:33:05;;;;;;;23.07;21.97;;;21.60;99.90;;;;;;5066807;28;20451;-66
2023/07/31 02:35:33;;;;;;;22.57;21.37;;;21.60;99.90;;;;;;5071110;28;20478;-65
2023/07/31 02:38:00;;;;;;;26.50;25.30;;;21.60;99.90;;;;;;5071389;28;20491;-66
2023/07/31 02:40:27;;;;;;;24.87;23.83;;;21.60;99.90;;;;;;5071157;28;20501;-66
2023/07/31 02:42:54;;;;;;;21.93;20.93;;;21.60;99.90;;;;;;5070323;28;20472;-66
2023/07/31 02:45:21;;;;;;;22.77;21.87;;;21.60;99.90;;;;;;5065700;28;20475;-65
2023/07/31 02:47:48;;;;;;;22.70;21.70;;;21.60;99.90;;;;;;5071125;28;20916;-65
2023/07/31 02:50:15;;;;;;;21.77;20.87;;;21.60;99.90;;;;;;5071165;28;20447;-66
2023/07/31 02:52:43;;;;;;;22.80;21.40;;;21.60;99.90;;;;;;5071008;28;20475;-65
2023/07/31 02:55:10;;;;;;;22.60;21.60;;;21.60;99.90;;;;;;5060050;28;20527;-66
2023/07/31 02:57:37;;;;;;;24.27;22.70;;;21.60;99.90;;;;;;5070955;28;20501;-65
2023/07/31 03:00:06;;;;;;;23.37;22.33;;;21.60;99.90;;;;;;5071103;28;20702;-66
2023/07/31 03:02:33;;;;;;;24.57;23.30;;;21.60;99.90;;;;;;5070440;28;20947;-65
2023/07/31 03:05:00;;;;;;;23.90;23.00;;;21.60;99.90;;;;;;5070764;28;20475;-66
2023/07/31 03:07:27;;;;;;;24.50;23.30;;;21.60;99.90;;;;;;5070737;28;20478;-65
2023/07/31 03:09:55;;;;;;;23.70;22.80;;;21.60;99.90;;;;;;5071015;28;20451;-66
2023/07/31 03:12:22;;;;;;;24.67;23.37;;;21.60;99.90;;;;;;5062543;28;20453;-65
2023/07/31 03:14:49;;;;;;;22.97;22.07;;;21.60;99.90;;;;;;5070720;28;20490;-66
2023/07/31 03:17:16;;;;;;;24.20;23.20;;;21.60;99.90;;;;;;5070890;28;20987;-66
2023/07/31 03:19:43;;;;;;;23.60;22.67;;;21.60;99.90;;;;;;5070724;28;20544;-66
2023/07/31 03:22:10;;;;;;;22.97;22.00;;;21.60;99.90;;;;;;5070853;28;20447;-66
2023/07/31 03:24:37;;;;;;;22.50;21.53;;;21.60;99.90;;;;;;5070179;28;20492;-66
2023/07/31 03:27:06;;;;;;;24.80;23.50;;;21.60;99.90;;;;;;5070622;28;20958;-66
2023/07/31 03:29:33;;;;;;;25.70;23.60;;;21.60;99.90;;;;;;5070695;28;20443;-65
2023/07/31 03:32:00;;;;;;;21.97;21.07;;;21.60;99.90;;;;;;5073231;28;20479;-66
2023/07/31 03:34:27;;;;;;;24.57;23.47;;;21.60;99.90;;;;;;5064644;28;20451;-65
2023/07/31 03:36:54;;;;;;;23.63;22.33;;;21.60;99.90;;;;;;5070740;28;20473;-66
2023/07/31 03:39:21;;;;;;;23.40;22.40;;;21.60;99.90;;;;;;5070451;28;20491;-65
2023/07/31 03:41:48;;;;;;;23.93;23.00;;;21.50;99.90;;;;;;5068473;28;20482;-66
2023/07/31 03:44:16;;;;;;;24.90;23.73;;;21.60;99.90;;;;;;5066250;28;20471;-66
2023/07/31 03:46:43;;;;;;;24.60;23.30;;;21.60;99.90;;;;;;5073857;28;20463;-66
2023/07/31 03:49:10;;;;;;;22.90;22.10;;;21.50;99.90;;;;;;5074308;28;20515;-65
2023/07/31 03:51:37;;;;;;;24.07;22.70;;;21.50;99.90;;;;;;5072714;28;20535;-65
2023/07/31 03:54:04;;;;;;;24.50;23.57;;;21.50;99.90;;;;;;5074090;28;20478;-66
2023/07/31 03:56:31;;;;;;;22.80;21.70;;;21.50;99.90;;;;;;5074115;28;20471;-66
2023/07/31 03:58:58;;;;;;;21.93;20.63;;;21.50;99.90;;;;;;5074461;28;20486;-66
2023/07/31 04:01:27;;;;;;;25.67;24.40;;;21.50;99.90;;;;;;5073983;28;20475;-66
2023/07/31 04:03:54;;;;;;;25.17;23.87;;;21.50;99.90;;;;;;5073749;28;20526;-66
2023/07/31 04:06:21;;;;;;;25.60;24.70;;;21.50;99.90;;;;;;5070458;28;20486;-66
2023/07/31 04:08:48;;;;;;;28.17;26.87;;;21.50;99.90;;;;;;5057558;28;20479;-66
2023/07/31 04:11:15;;;;;;;25.23;24.23;;;21.50;99.90;;;;;;5074029;28;20815;-66
2023/07/31 04:13:41;;;;;;;27.33;26.17;;;21.50;99.90;;;;;;5073716;28;20534;-66
2023/07/31 04:16:08;;;;;;;26.90;25.70;;;21.50;99.90;;;;;;5074999;28;20479;-66
2023/07/31 04:18:37;;;;;;;26.50;25.30;;;21.50;99.90;;;;;;5067164;28;20490;-65
2023/07/31 04:21:03;;;;;;;27.47;26.37;;;21.50;99.90;;;;;;5073782;28;20482;-66
2023/07/31 04:23:30;;;;;;;28.20;26.97;;;21.50;99.90;;;;;;5073466;28;20538;-66
2023/07/31 04:25:57;;;;;;;27.80;26.50;;;21.50;99.90;;;;;;5073770;28;20777;-66
2023/07/31 04:28:25;;;;;;;27.37;25.97;;;21.50;99.90;;;;;;5065534;28;21019;-66
2023/07/31 04:30:52;;;;;;;27.23;26.13;;;21.50;99.90;;;;;;5071905;28;20462;-65
2023/07/31 04:33:19;;;;;;;26.70;25.70;;;21.60;99.90;;;;;;5073687;28;21023;-66
2023/07/31 04:35:52;;;;;;;27.77;26.37;;;21.60;99.90;;;;;;5073381;28;20436;-66
2023/07/31 04:38:19;;;;;;;27.17;25.40;;;21.60;99.90;;;;;;5073557;28;20459;-66
2023/07/31 04:40:46;;;;;;;26.60;25.40;;;21.60;99.90;;;;;;5066936;28;20444;-65
2023/07/31 04:43:13;;;;;;;28.20;26.80;;;21.60;99.90;;;;;;5073326;28;20816;-66
2023/07/31 04:45:40;;;;;;;25.97;24.87;;;21.60;99.90;;;;;;5073096;28;20486;-66
2023/07/31 04:48:07;;;;;;;27.37;26.13;;;21.60;99.90;;;;;;5073111;28;20511;-66
2023/07/31 04:50:34;;;;;;;27.20;26.10;;;21.60;99.90;;;;;;5073143;28;20803;-65
2023/07/31 04:53:02;;;;;;;26.97;25.60;;;21.60;99.90;;;;;;5066558;28;20471;-66
2023/07/31 04:55:29;;;;;;;26.60;25.50;;;21.60;99.90;;;;;;5072723;28;20467;-66
2023/07/31 04:57:56;;;;;;;26.80;25.60;;;21.60;99.90;;;;;;5072801;28;20485;-66
2023/07/31 05:00:23;;;;;;;24.70;23.70;;;21.60;99.90;;;;;;5073056;28;20467;-65
2023/07/31 05:02:49;;;;;;;37.40;36.00;;;21.60;99.90;;;;;;5056736;28;20866;-66
2023/07/31 05:05:16;;;;;;;35.73;34.40;;;21.60;99.90;;;;;;5067710;28;20480;-69
2023/07/31 05:07:43;;;;;;;38.33;36.93;;;21.60;99.90;;;;;;5071935;28;20499;-66
2023/07/31 05:10:11;;;;;;;36.80;34.90;;;21.70;99.90;;;;;;5075583;28;20490;-67
2023/07/31 05:12:40;;;;;;;35.80;34.37;;;21.80;99.90;;;;;;5065817;28;20471;-68
2023/07/31 05:15:08;;;;;;;36.77;35.27;;;21.80;99.90;;;;;;5072561;28;20440;-65
2023/07/31 05:17:35;;;;;;;38.43;36.93;;;22.00;99.90;;;;;;5072763;28;20493;-66
2023/07/31 05:20:02;;;;;;;37.00;35.57;;;22.00;99.90;;;;;;5069845;28;20487;-67
2023/07/31 05:22:29;;;;;;;39.43;37.60;;;22.20;99.90;;;;;;5067041;28;20927;-68
2023/07/31 05:24:56;;;;;;;36.93;35.53;;;22.30;99.90;;;;;;5071984;28;20459;-68
2023/07/31 05:29:55;;;;;;;38.80;37.20;;;22.60;99.90;;;;;;5031166;28;20485;-64
2023/07/31 05:32:25;;;;;;;37.83;36.30;;;22.80;99.90;;;;;;5023071;28;20448;-66
2023/07/31 05:34:52;;;;;;;38.07;36.67;;;22.90;99.90;;;;;;5023024;28;20450;-65
2023/07/31 05:37:20;;;;;;;39.80;38.00;;;23.10;99.90;;;;;;5024538;28;20442;-66
2023/07/31 05:39:47;;;;;;;40.43;38.93;;;23.20;99.90;;;;;;5006149;28;20435;-66
2023/07/31 05:42:15;;;;;;;38.90;37.20;;;23.30;99.90;;;;;;5008426;28;20600;-66
2023/07/31 05:44:43;;;;;;;39.17;37.67;;;23.40;99.90;;;;;;4994353;28;20488;-66
2023/07/31 05:47:11;;;;;;;40.30;38.60;;;23.60;99.90;;;;;;5008063;28;20532;-65
2023/07/31 05:49:38;;;;;;;41.87;40.17;;;23.70;99.90;;;;;;5004732;28;20532;-66
2023/07/31 05:52:06;;;;;;;42.00;40.00;;;23.70;99.90;;;;;;5002401;28;20827;-65
2023/07/31 05:54:33;;;;;;;40.87;39.47;;;23.90;99.90;;;;;;5005851;28;20478;-64
2023/07/31 05:57:00;;;;;;;41.60;40.10;;;24.00;99.90;;;;;;5010469;28;20492;-64
2023/07/31 05:59:27;;;;;;;41.33;39.50;;;24.10;99.90;;;;;;5008597;28;20502;-66
2023/07/31 06:01:54;;;;;;;43.37;41.20;;;24.10;99.90;;;;;;5005975;28;20883;-67
2023/07/31 06:04:25;;;;;;;42.20;40.60;;;24.20;99.90;;;;;;5005977;28;20485;-67
2023/07/31 06:06:52;;;;;;;43.33;41.50;;;24.30;99.90;;;;;;5003314;28;20462;-65
2023/07/31 06:09:20;;;;;;;41.60;40.00;;;24.30;99.90;;;;;;5003211;28;20513;-64
2023/07/31 06:11:47;;;;;;;42.43;40.83;;;24.30;99.90;;;;;;5001693;28;20452;-66
2023/07/31 06:14:13;;;;;;;42.40;40.83;;;24.40;99.90;;;;;;5004239;28;20479;-65
2023/07/31 06:16:41;;;;;;;41.40;39.90;;;24.50;99.90;;;;;;5002739;28;20967;-67
2023/07/31 06:19:08;;;;;;;42.60;41.00;;;24.50;99.90;;;;;;5005644;28;20462;-65
2023/07/31 06:21:37;;;;;;;41.23;39.63;;;24.50;99.90;;;;;;5002928;28;20453;-65
2023/07/31 06:24:04;;;;;;;42.70;41.07;;;24.50;99.90;;;;;;5000509;28;20492;-65
2023/07/31 06:26:31;;;;;;;44.20;42.20;;;24.50;99.90;;;;;;5002987;28;20446;-65
2023/07/31 06:28:58;;;;;;;42.77;41.00;;;24.60;99.90;;;;;;5000194;28;20744;-63
2023/07/31 06:31:24;;;;;;;39.83;38.30;;;24.60;99.90;;;;;;5011025;28;20900;-63
2023/07/31 06:33:52;;;;;;;41.90;40.10;;;24.70;99.90;;;;;;5004037;28;20478;-65
2023/07/31 06:36:19;;;;;;;41.27;39.57;;;24.70;99.90;;;;;;5002869;28;20870;-64
2023/07/31 06:50:09;;;;;;;44.90;43.20;;;24.70;99.90;;;;;;5061307;28;20637;-66
2023/07/31 06:52:36;;;;;;;42.20;40.30;;;24.80;99.90;;;;;;5048140;28;20498;-65
2023/07/31 06:55:04;;;;;;;41.90;40.30;;;24.90;99.90;;;;;;5048297;28;20483;-64
2023/07/31 06:57:31;;;;;;;44.70;42.90;;;24.90;99.90;;;;;;5048207;28;20440;-65
2023/07/31 06:59:58;;;;;;;42.57;40.87;;;24.90;99.90;;;;;;5048007;28;20498;-65
2023/07/31 07:02:25;;;;;;;41.07;39.27;;;24.90;99.90;;;;;;5048527;28;20487;-62
2023/07/31 07:04:52;;;;;;;42.33;40.63;;;24.90;99.90;;;;;;5048328;28;20872;-68
2023/07/31 07:07:20;;;;;;;42.67;41.00;;;25.00;99.90;;;;;;5047313;28;20476;-65
2023/07/31 07:09:47;;;;;;;42.77;41.13;;;24.90;99.90;;;;;;5049757;28;20884;-63
2023/07/31 07:12:14;;;;;;;42.90;41.30;;;24.90;99.90;;;;;;5050125;28;20469;-59
2023/07/31 07:14:41;;;;;;;44.07;42.37;;;24.90;99.90;;;;;;5048368;28;20481;-71
2023/07/31 07:17:08;;;;;;;42.73;40.93;;;24.80;99.90;;;;;;5047641;28;20491;-68
2023/07/31 07:19:35;;;;;;;40.90;39.40;;;24.80;99.90;;;;;;5047286;28;21020;-68
2023/07/31 07:22:01;;;;;;;41.53;39.90;;;24.90;99.90;;;;;;5047901;28;20866;-66
2023/07/31 07:24:30;;;;;;;44.23;42.47;;;25.00;99.90;;;;;;5047710;28;20451;-64
2023/07/31 07:26:57;;;;;;;44.60;42.50;;;25.00;99.90;;;;;;5047887;28;20583;-64
2023/07/31 07:29:24;;;;;;;41.47;39.67;;;25.00;99.90;;;;;;5047399;28;20468;-61
2023/07/31 07:31:51;;;;;;;42.77;41.20;;;25.00;99.90;;;;;;5047448;28;20498;-63
2023/07/31 07:34:18;;;;;;;41.43;39.80;;;25.10;99.90;;;;;;5047599;28;20447;-63
2023/07/31 07:36:45;;;;;;;42.23;40.40;;;25.00;99.90;;;;;;5047626;28;20450;-61
2023/07/31 07:39:12;;;;;;;42.97;41.20;;;25.00;99.90;;;;;;5047259;28;20665;-63
2023/07/31 07:41:40;;;;;;;45.23;43.23;;;25.10;99.90;;;;;;5047643;28;20491;-63
2023/07/31 07:44:09;;;;;;;41.90;40.00;;;25.00;99.90;;;;;;5047555;28;20860;-68
2023/07/31 07:46:36;;;;;;;42.77;41.17;;;25.10;99.90;;;;;;5047044;28;20460;-68
2023/07/31 07:49:03;;;;;;;39.60;38.10;;;25.00;99.90;;;;;;5045074;28;20472;-67
2023/07/31 07:51:31;;;;;;;40.13;38.63;;;25.00;99.90;;;;;;5033628;28;20508;-69
2023/07/31 07:53:58;;;;;;;40.33;38.53;;;25.00;99.90;;;;;;5033837;28;20607;-69
2023/07/31 07:56:26;;;;;;;41.00;39.40;;;25.00;99.90;;;;;;5033595;28;20480;-68
2023/07/31 07:58:54;;;;;;;39.70;38.10;;;25.00;99.90;;;;;;5033663;28;20516;-68
2023/07/31 08:01:21;;;;;;;40.33;38.77;;;25.00;99.90;;;;;;5032543;28;20492;-68
2023/07/31 08:03:49;;;;;;;39.30;37.90;;;25.00;99.90;;;;;;5035599;28;20469;-63
2023/07/31 08:06:16;;;;;;;39.80;38.27;;;25.00;99.90;;;;;;5031358;28;20481;-60
2023/07/31 08:08:43;;;;;;;40.90;39.40;;;24.90;99.90;;;;;;5033554;28;20462;-63
2023/07/31 08:11:10;;;;;;;41.40;39.80;;;25.00;99.90;;;;;;5034230;28;20550;-61
2023/07/31 08:13:37;;;;;;;40.40;38.83;;;25.00;99.90;;;;;;5032542;28;20446;-63
2023/07/31 08:16:06;;;;;;;41.33;39.83;;;25.00;99.90;;;;;;5036011;28;20452;-62
2023/07/31 08:18:33;;;;;;;41.33;39.57;;;25.00;99.90;;;;;;5033487;28;20587;-63
2023/07/31 08:21:00;;;;;;;41.40;39.63;;;25.00;99.90;;;;;;5033235;28;20595;-63
2023/07/31 08:23:27;;;;;;;39.20;37.80;;;25.00;99.90;;;;;;5033414;28;20471;-62
2023/07/31 08:25:53;;;;;;;39.13;37.70;;;24.90;99.90;;;;;;5033845;28;20874;-60
2023/07/31 08:28:20;;;;;;;41.03;39.53;;;25.00;99.90;;;;;;5035242;28;20461;-65
2023/07/31 08:30:47;;;;;;;40.27;38.77;;;25.00;99.90;;;;;;5033253;28;20505;-61
2023/07/31 08:33:15;;;;;;;39.70;38.30;;;25.00;99.90;;;;;;5033119;28;20449;-62
2023/07/31 08:35:42;;;;;;;40.10;38.60;;;25.10;99.90;;;;;;5033534;28;20911;-64
2023/07/31 08:38:09;;;;;;;41.30;39.80;;;25.10;99.90;;;;;;5032976;28;20531;-66
2023/07/31 08:40:38;;;;;;;40.03;38.33;;;25.10;99.90;;;;;;5032820;28;20504;-64
2023/07/31 08:43:05;;;;;;;40.30;38.83;;;25.00;99.90;;;;;;5033056;28;20449;-64
2023/07/31 08:45:33;;;;;;;40.57;39.17;;;25.00;99.90;;;;;;5033041;28;20603;-63
2023/07/31 08:48:00;;;;;;;38.47;37.07;;;25.00;99.90;;;;;;5032940;28;20473;-62
2023/07/31 08:50:28;;;;;;;39.80;38.20;;;25.00;99.90;;;;;;5032649;28;20921;-64
2023/07/31 08:52:55;;;;;;;41.47;39.87;;;25.00;99.90;;;;;;5032695;28;20520;-65
2023/07/31 08:55:23;;;;;;;40.80;39.30;;;25.10;99.90;;;;;;5032686;28;20465;-63
2023/07/31 08:57:52;;;;;;;40.50;39.00;;;25.10;99.90;;;;;;5032744;28;20938;-62
2023/07/31 09:00:21;;;;;;;40.70;39.20;;;25.10;99.90;;;;;;5032167;28;20567;-64
2023/07/31 09:02:55;;;;;;;42.17;40.67;;;25.10;99.90;;;;;;5031202;28;20942;-63
2023/07/31 09:05:22;;;;;;;39.93;38.43;;;25.20;99.90;;;;;;5032221;28;20469;-60
2023/07/31 09:07:52;;;;;;;40.00;38.50;;;25.10;99.90;;;;;;5031416;28;21036;-64
2023/07/31 09:10:19;;;;;;;41.50;39.90;;;25.10;99.90;;;;;;5031113;28;20918;-62
2023/07/31 09:12:46;;;;;;;40.70;39.10;;;24.90;99.90;;;;;;5032133;28;20473;-61
2023/07/31 09:15:13;;;;;;;40.60;39.10;;;24.90;99.90;;;;;;5032193;28;20492;-62
2023/07/31 09:17:40;;;;;;;40.40;38.73;;;24.90;99.90;;;;;;5032095;28;20484;-60
2023/07/31 09:20:17;;;;;;;39.70;38.10;;;24.90;99.90;;;;;;5031907;28;21206;-60
2023/07/31 09:22:45;;;;;;;41.83;39.67;;;24.90;99.90;;;;;;5023841;28;20453;-62
2023/07/31 09:25:17;;;;;;;41.17;39.57;;;24.90;99.90;;;;;;5031987;28;20457;-64
2023/07/31 09:27:49;;;;;;;41.60;40.00;;;25.00;99.90;;;;;;5032425;28;20437;-65
2023/07/31 09:30:16;;;;;;;39.93;38.43;;;24.90;99.90;;;;;;5031994;28;20492;-62
2023/07/31 09:32:44;;;;;;;39.03;37.63;;;25.00;99.90;;;;;;5031985;28;20481;-61
2023/07/31 09:35:21;;;;;;;38.30;36.80;;;25.00;99.90;;;;;;5032016;28;20533;-61
2023/07/31 09:37:52;;;;;;;39.53;37.93;;;25.00;99.90;;;;;;5024522;28;20477;-65
2023/07/31 09:40:31;;;;;;;40.60;39.03;;;24.90;99.90;;;;;;5031360;28;20515;-62
2023/07/31 09:43:00;;;;;;;40.73;39.13;;;24.90;99.90;;;;;;5031453;28;20508;-64
2023/07/31 09:45:27;;;;;;;40.23;38.57;;;25.00;99.90;;;;;;5031511;28;20477;-66
2023/07/31 09:47:55;;;;;;;38.57;37.27;;;24.90;99.90;;;;;;5031627;28;20448;-64
2023/07/31 09:50:23;;;;;;;38.13;36.83;;;25.00;99.90;;;;;;5031273;28;20496;-63
2023/07/31 09:52:50;;;;;;;39.60;38.10;;;25.00;99.90;;;;;;5031480;28;20565;-64
2023/07/31 09:55:17;;;;;;;40.20;38.40;;;25.00;99.90;;;;;;5031652;28;20448;-63
2023/07/31 09:57:48;;;;;;;38.53;37.03;;;25.00;99.90;;;;;;5023260;28;20469;-65
2023/07/31 10:00:17;;;;;;;40.10;38.63;;;25.00;99.90;;;;;;5027789;28;20516;-63
2023/07/31 10:02:46;;;;;;;38.57;36.97;;;25.00;99.90;;;;;;5031761;28;20441;-64
2023/07/31 10:05:14;;;;;;;39.00;37.40;;;25.00;99.90;;;;;;5031491;28;20504;-63
2023/07/31 10:07:43;;;;;;;40.00;38.30;;;24.90;99.90;;;;;;5031653;28;20437;-62
2023/07/31 10:10:11;;;;;;;39.20;37.60;;;25.00;99.90;;;;;;5032167;28;20511;-63
2023/07/31 10:12:39;;;;;;;39.43;37.80;;;25.00;99.90;;;;;;5030940;28;20511;-60
2023/07/31 10:15:09;;;;;;;39.07;37.60;;;25.00;99.90;;;;;;5031208;28;20476;-61
2023/07/31 10:17:37;;;;;;;38.83;37.43;;;25.00;99.90;;;;;;5031338;28;20499;-61
2023/07/31 10:20:05;;;;;;;37.63;36.03;;;25.00;99.90;;;;;;5030906;28;20476;-65
2023/07/31 10:22:32;;;;;;;38.63;36.97;;;25.10;99.90;;;;;;5030874;28;20964;-61
2023/07/31 10:25:00;;;;;;;38.97;37.50;;;25.10;99.90;;;;;;4997752;28;20447;-64
2023/07/31 10:27:28;;;;;;;40.40;38.80;;;25.10;99.90;;;;;;5011459;28;20468;-62
2023/07/31 10:29:58;;;;;;;38.83;37.43;;;25.10;99.90;;;;;;5011238;28;20885;-65
2023/07/31 10:32:28;;;;;;;40.30;38.70;;;25.10;99.90;;;;;;5011134;28;20481;-61
2023/07/31 10:34:56;;;;;;;40.40;38.87;;;25.10;99.90;;;;;;5011706;28;20469;-62
2023/07/31 10:37:28;;;;;;;39.30;37.80;;;25.10;99.90;;;;;;5011269;28;20473;-62
2023/07/31 10:40:04;;;;;;;39.83;38.20;;;25.10;99.90;;;;;;5010953;28;20511;-62
2023/07/31 10:42:33;;;;;;;41.97;40.47;;;25.10;99.90;;;;;;5010816;28;20442;-61
2023/07/31 10:45:01;;;;;;;38.77;37.37;;;25.10;99.90;;;;;;5011326;28;21182;-61
2023/07/31 10:47:30;;;;;;;40.20;38.43;;;25.10;99.90;;;;;;5011129;28;20441;-63
2023/07/31 10:50:20;;;;;;;39.80;38.30;;;25.20;99.90;;;;;;5010674;28;20493;-62
2023/07/31 10:52:51;;;;;;;39.30;37.70;;;25.10;99.90;;;;;;5003120;28;20577;-63
2023/07/31 10:55:32;;;;;;;36.42;35.03;;;25.20;99.90;;;;;;5010472;28;20470;-60
2023/07/31 10:58:07;;;;;;;41.00;39.50;;;25.10;99.90;;;;;;5005038;28;20203;-59
2023/07/31 11:00:34;;;;;;;40.97;39.23;;;25.20;99.90;;;;;;5010561;28;20481;-65
2023/07/31 11:03:04;;;;;;;39.60;37.90;;;25.10;99.90;;;;;;5011199;28;20893;-63
2023/07/31 11:05:46;;;;;;;41.00;39.40;;;25.10;99.90;;;;;;5010873;28;20478;-66
2023/07/31 11:08:14;;;;;;;40.27;38.67;;;25.20;99.90;;;;;;5011057;28;20438;-63
2023/07/31 11:10:41;;;;;;;41.80;40.20;;;25.20;99.90;;;;;;5010443;28;20520;-64
2023/07/31 11:13:08;;;;;;;39.90;38.40;;;25.20;99.90;;;;;;5011912;28;20473;-65
2023/07/31 11:15:35;;;;;;;40.93;39.40;;;25.30;99.90;;;;;;5016843;28;20474;-64
2023/07/31 11:18:05;;;;;;;40.40;38.80;;;25.30;99.90;;;;;;5021482;28;20441;-64
2023/07/31 11:20:32;;;;;;;41.77;40.17;;;25.40;99.90;;;;;;5020110;28;21056;-64
2023/07/31 11:23:01;;;;;;;40.87;39.33;;;25.40;99.90;;;;;;5019961;28;20438;-63
2023/07/31 11:25:30;;;;;;;39.83;38.30;;;25.40;99.90;;;;;;5022440;28;20448;-63
2023/07/31 11:27:57;;;;;;;40.90;39.40;;;25.40;99.90;;;;;;5024207;28;20468;-63
2023/07/31 11:30:25;;;;;;;41.90;40.23;;;25.50;99.90;;;;;;5023723;28;20454;-63
2023/07/31 11:32:52;;;;;;;39.40;37.80;;;25.50;99.90;;;;;;5021989;28;20456;-64
2023/07/31 11:35:20;;;;;;;40.77;39.33;;;25.60;99.90;;;;;;5020579;28;20438;-63
2023/07/31 11:37:48;;;;;;;42.30;40.70;;;25.60;99.90;;;;;;5020786;28;20447;-64
2023/07/31 11:40:15;;;;;;;41.37;39.77;;;25.60;99.90;;;;;;5020191;28;20568;-64
2023/07/31 11:42:42;;;;;;;41.57;40.07;;;25.60;99.90;;;;;;5017554;28;20493;-64
2023/07/31 11:45:10;;;;;;;40.00;38.60;;;25.70;99.90;;;;;;5017139;28;20474;-64
2023/07/31 11:47:38;;;;;;;41.07;39.57;;;25.70;99.90;;;;;;5017944;28;20469;-64
2023/07/31 11:50:07;;;;;;;41.60;40.03;;;25.60;99.90;;;;;;5018197;28;20481;-63
2023/07/31 11:52:40;;;;;;;39.57;38.17;;;25.60;99.90;;;;;;5018895;28;20434;-65
2023/07/31 11:55:10;;;;;;;39.83;38.33;;;25.60;99.90;;;;;;5017921;28;20866;-65
2023/07/31 11:57:39;;;;;;;42.83;41.33;;;25.70;99.90;;;;;;5014273;28;20850;-63
2023/07/31 12:00:10;;;;;;;40.30;38.60;;;25.60;99.90;;;;;;5015281;28;20516;-65
2023/07/31 12:02:39;;;;;;;40.20;38.80;;;25.60;99.90;;;;;;5015327;28;20442;-63
2023/07/31 12:05:07;;;;;;;40.13;38.73;;;25.50;99.90;;;;;;5015006;28;20454;-67
2023/07/31 12:07:49;;;;;;;40.50;39.10;;;25.50;99.90;;;;;;5015213;28;20550;-63
2023/07/31 12:10:29;;;;;;;40.23;38.73;;;25.50;99.90;;;;;;5014746;28;20458;-63
2023/07/31 12:13:01;;;;;;;38.90;37.50;;;25.50;99.90;;;;;;5007939;28;20466;-64
2023/07/31 12:15:34;;;;;;;39.53;38.10;;;25.40;99.90;;;;;;5014606;28;20457;-66
2023/07/31 12:18:04;;;;;;;40.07;38.67;;;25.40;99.90;;;;;;5015375;28;20601;-66
2023/07/31 12:20:31;;;;;;;40.70;39.30;;;25.40;99.90;;;;;;5013694;28;20509;-65
2023/07/31 12:23:00;;;;;;;39.70;38.20;;;25.40;99.90;;;;;;5014370;28;20547;-64
2023/07/31 12:25:33;;;;;;;39.00;37.60;;;25.40;99.90;;;;;;5013753;28;20470;-66
2023/07/31 12:28:06;;;;;;;39.63;38.17;;;25.40;99.90;;;;;;5013806;28;20470;-62
2023/07/31 12:30:35;;;;;;;39.10;37.70;;;25.40;99.90;;;;;;5013183;28;20461;-61
2023/07/31 12:33:06;;;;;;;39.13;37.83;;;25.40;99.90;;;;;;5013906;28;20821;-63
2023/07/31 12:35:37;;;;;;;40.33;38.77;;;25.40;99.90;;;;;;5013292;28;20446;-64
2023/07/31 12:38:05;;;;;;;41.83;40.23;;;25.30;99.90;;;;;;5013126;28;20446;-64
2023/07/31 12:40:33;;;;;;;39.37;37.97;;;25.30;99.90;;;;;;5012875;28;20485;-66
2023/07/31 12:43:03;;;;;;;40.93;39.53;;;25.30;99.90;;;;;;5013225;28;20481;-65
2023/07/31 12:45:30;;;;;;;41.60;39.80;;;25.20;99.90;;;;;;5013139;28;20448;-64
2023/07/31 12:47:57;;;;;;;39.53;38.23;;;25.20;99.90;;;;;;5012974;28;20792;-63